Time;durP1;ratioP1;P1;durP2;ratioP2;P2;SDS_P1;SDS_P2;PMS_P1;PMS_P2;Temp;Humidity;BMP_temperature;BMP_pressure;BME280_temperature;BME280_humidity;BME280_pressure;Samples;Min_cycle;Max_cycle;Signal;HPM_P1;HPM_P2
2023/06/29 00:01:17;;;;;;;25.63;15.13;;;;;;;;;;6285218;28;20049;-53
2023/06/29 00:04:37;;;;;;;29.42;16.15;;;;;;;;;;6284116;28;20048;-53
2023/06/29 00:07:38;;;;;;;31.63;16.77;;;;;;;;;;6282295;28;20144;-54
2023/06/29 00:10:40;;;;;;;28.50;16.70;;;;;;;;;;6291666;28;20044;-54
2023/06/29 00:13:40;;;;;;;26.53;15.77;;;;;;;;;;6288255;28;20380;-52
2023/06/29 00:16:41;;;;;;;28.15;16.42;;;;;;;;;;6282872;28;20135;-54
2023/06/29 00:19:42;;;;;;;27.00;16.50;;;;;;;;;;6284761;28;20040;-50
2023/06/29 00:22:47;;;;;;;30.55;17.10;;;;;;;;;;6286172;28;20046;-54
2023/06/29 00:25:48;;;;;;;29.95;16.63;;;;;;;;;;6288075;28;20151;-55
2023/06/29 00:28:49;;;;;;;29.35;18.13;;;;;;;;;;6289032;28;20766;-53
2023/06/29 00:31:49;;;;;;;31.48;17.55;;;;;;;;;;6289616;28;20615;-53
2023/06/29 00:34:50;;;;;;;28.92;16.95;;;;;;;;;;6288386;28;20052;-55
2023/06/29 00:37:50;;;;;;;32.75;18.38;;;;;;;;;;6289535;28;20094;-56
2023/06/29 00:40:51;;;;;;;32.70;16.70;;;;;;;;;;6290087;28;20328;-53
2023/06/29 00:43:52;;;;;;;33.17;17.85;;;;;;;;;;6281763;28;20048;-53
2023/06/29 00:46:53;;;;;;;33.38;18.00;;;;;;;;;;6283552;28;20061;-55
2023/06/29 00:49:54;;;;;;;29.30;17.58;;;;;;;;;;6287316;28;20064;-53
2023/06/29 00:52:55;;;;;;;29.73;17.20;;;;;;;;;;6287195;28;20139;-51
2023/06/29 00:55:58;;;;;;;32.17;18.05;;;;;;;;;;6285669;28;20044;-52
2023/06/29 00:58:59;;;;;;;32.33;17.15;;;;;;;;;;6282157;28;20511;-53
2023/06/29 01:02:00;;;;;;;31.13;17.75;;;;;;;;;;6286042;28;20047;-52
2023/06/29 01:05:03;;;;;;;36.75;20.20;;;;;;;;;;6291039;28;20143;-53
2023/06/29 01:08:11;;;;;;;36.83;19.02;;;;;;;;;;6284882;28;20062;-53
2023/06/29 01:11:13;;;;;;;35.70;19.92;;;;;;;;;;6285970;28;20048;-54
2023/06/29 01:14:15;;;;;;;;;;;;;;;;;;6285728;28;20087;-53
2023/06/29 01:17:18;;;;;;;;;;;;;;;;;;6282122;28;20062;-54
2023/06/29 01:20:19;;;;;;;51.88;22.70;;;;;;;;;;6285221;28;19928;-53
2023/06/29 01:23:36;;;;;;;45.50;23.77;;;;;;;;;;6283400;28;20044;-51
2023/06/29 01:26:38;;;;;;;48.55;23.02;;;;;;;;;;6281489;28;20055;-51
2023/06/29 01:29:39;;;;;;;49.17;24.00;;;;;;;;;;6285228;28;20040;-53
2023/06/29 01:32:40;;;;;;;49.43;23.67;;;;;;;;;;6283433;28;20866;-51
2023/06/29 01:35:41;;;;;;;55.05;25.17;;;;;;;;;;6285571;28;20305;-53
2023/06/29 01:39:05;;;;;;;49.90;24.63;;;;;;;;;;6285606;28;20044;-55
2023/06/29 01:42:07;;;;;;;53.50;23.75;;;;;;;;;;6286529;28;20914;-54
2023/06/29 01:45:09;;;;;;;47.75;23.77;;;;;;;;;;6282577;28;20076;-53
2023/06/29 01:48:11;;;;;;;54.80;24.90;;;;;;;;;;6287172;28;20044;-55
2023/06/29 01:51:11;;;;;;;50.53;24.25;;;;;;;;;;6283672;28;20552;-54
2023/06/29 01:54:12;;;;;;;49.55;24.95;;;;;;;;;;6287403;28;20040;-54
2023/06/29 01:57:13;;;;;;;54.78;25.30;;;;;;;;;;6298625;28;20050;-52
2023/06/29 02:00:14;;;;;;;46.90;23.83;;;;;;;;;;6300326;28;20114;-54
2023/06/29 02:03:14;;;;;;;47.35;23.65;;;;;;;;;;6299158;28;20040;-55
2023/06/29 02:06:15;;;;;;;49.05;24.20;;;;;;;;;;6307176;28;20147;-54
2023/06/29 02:09:16;;;;;;;51.55;25.02;;;;;;;;;;6302523;28;20040;-52
2023/06/29 02:12:17;;;;;;;51.13;24.50;;;;;;;;;;6305824;28;20052;-51
2023/06/29 02:15:17;;;;;;;47.97;24.30;;;;;;;;;;6290294;28;20063;-55
2023/06/29 02:18:18;;;;;;;51.75;24.38;;;;;;;;;;6295684;28;20079;-56
2023/06/29 02:21:19;;;;;;;50.88;25.10;;;;;;;;;;6297122;28;20039;-54
2023/06/29 02:24:20;;;;;;;52.38;24.67;;;;;;;;;;6296870;28;20325;-55
2023/06/29 02:27:21;;;;;;;49.88;25.13;;;;;;;;;;6298898;28;20053;-52
2023/06/29 02:30:22;;;;;;;48.22;24.77;;;;;;;;;;6296135;28;20047;-53
2023/06/29 02:33:22;;;;;;;49.58;24.63;;;;;;;;;;6296379;28;20051;-55
2023/06/29 02:36:23;;;;;;;51.75;23.92;;;;;;;;;;6290994;28;20075;-54
2023/06/29 02:39:24;;;;;;;50.03;24.20;;;;;;;;;;6291597;28;20044;-55
2023/06/29 02:42:24;;;;;;;49.75;24.13;;;;;;;;;;6297463;28;20511;-54
2023/06/29 02:45:25;;;;;;;50.53;24.73;;;;;;;;;;6297005;28;20076;-55
2023/06/29 02:48:25;;;;;;;47.08;24.63;;;;;;;;;;6296139;28;21109;-55
2023/06/29 02:51:26;;;;;;;48.10;23.33;;;;;;;;;;6306300;28;20089;-53
2023/06/29 02:54:27;;;;;;;50.80;24.25;;;;;;;;;;6293855;28;20044;-53
2023/06/29 02:57:27;;;;;;;47.22;23.63;;;;;;;;;;6295993;28;20068;-52
2023/06/29 03:00:28;;;;;;;46.90;23.20;;;;;;;;;;6298075;28;20039;-52
2023/06/29 03:03:28;;;;;;;44.35;22.23;;;;;;;;;;6296918;28;20051;-53
2023/06/29 03:06:29;;;;;;;47.15;23.48;;;;;;;;;;6303221;28;20063;-54
2023/06/29 03:09:30;;;;;;;45.33;23.08;;;;;;;;;;6301651;28;20051;-54
2023/06/29 03:12:30;;;;;;;50.47;24.30;;;;;;;;;;6302271;28;20476;-54
2023/06/29 03:15:31;;;;;;;46.78;24.15;;;;;;;;;;6300918;28;20039;-52
2023/06/29 03:18:31;;;;;;;47.55;23.85;;;;;;;;;;6299046;28;20130;-54
2023/06/29 03:21:32;;;;;;;47.40;24.38;;;;;;;;;;6308394;28;20070;-54
2023/06/29 03:24:33;;;;;;;49.97;24.02;;;;;;;;;;6302373;28;20132;-55
2023/06/29 03:27:33;;;;;;;55.83;25.20;;;;;;;;;;6304596;28;20084;-55
2023/06/29 03:30:34;;;;;;;51.03;25.20;;;;;;;;;;6297583;28;20052;-54
2023/06/29 03:33:34;;;;;;;53.95;24.38;;;;;;;;;;6294669;28;20032;-53
2023/06/29 03:36:35;;;;;;;50.78;25.33;;;;;;;;;;6303586;28;20033;-54
2023/06/29 03:39:35;;;;;;;50.35;24.65;;;;;;;;;;6300698;28;20083;-52
2023/06/29 03:42:36;;;;;;;50.47;25.75;;;;;;;;;;6302943;28;20669;-57
2023/06/29 03:45:37;;;;;;;54.67;24.67;;;;;;;;;;6300940;28;20048;-55
2023/06/29 03:48:37;;;;;;;52.78;24.90;;;;;;;;;;6299919;28;20040;-56
2023/06/29 03:51:38;;;;;;;52.47;24.92;;;;;;;;;;6303742;28;20047;-55
2023/06/29 03:54:39;;;;;;;58.28;26.33;;;;;;;;;;6301829;28;20187;-54
2023/06/29 03:57:39;;;;;;;48.83;25.65;;;;;;;;;;6299128;28;20044;-55
2023/06/29 04:00:40;;;;;;;50.47;24.70;;;;;;;;;;6303033;28;20044;-54
2023/06/29 04:03:40;;;;;;;49.67;24.67;;;;;;;;;;6297515;28;20493;-54
2023/06/29 04:06:41;;;;;;;57.25;25.60;;;;;;;;;;6289821;28;20049;-53
2023/06/29 04:09:42;;;;;;;46.33;23.50;;;;;;;;;;6297878;28;20050;-56
2023/06/29 04:12:42;;;;;;;44.20;23.38;;;;;;;;;;6300897;28;20168;-56
2023/06/29 04:15:43;;;;;;;47.25;24.30;;;;;;;;;;6297937;28;20111;-55
2023/06/29 04:18:43;;;;;;;48.95;23.48;;;;;;;;;;6302906;28;20167;-56
2023/06/29 04:21:44;;;;;;;46.20;22.83;;;;;;;;;;6309674;28;20068;-55
2023/06/29 04:24:45;;;;;;;45.17;22.83;;;;;;;;;;6310856;28;20056;-53
2023/06/29 04:27:46;;;;;;;42.22;22.67;;;;;;;;;;6302607;28;20476;-57
2023/06/29 04:30:46;;;;;;;45.22;22.27;;;;;;;;;;6297770;28;20044;-54
2023/06/29 04:33:47;;;;;;;47.45;23.52;;;;;;;;;;6306284;28;20123;-51
2023/06/29 04:36:48;;;;;;;46.42;23.60;;;;;;;;;;6306121;28;20490;-53
2023/06/29 04:39:48;;;;;;;48.70;22.30;;;;;;;;;;6299034;28;20505;-53
2023/06/29 04:42:49;;;;;;;44.72;23.10;;;;;;;;;;6298821;28;20411;-53
2023/06/29 04:45:50;;;;;;;43.78;23.02;;;;;;;;;;6297586;28;20143;-54
2023/06/29 04:48:50;;;;;;;46.17;22.35;;;;;;;;;;6296789;28;20479;-55
2023/06/29 04:51:51;;;;;;;43.50;22.08;;;;;;;;;;6296048;28;20442;-54
2023/06/29 04:54:51;;;;;;;48.13;22.77;;;;;;;;;;6296043;28;20530;-52
2023/06/29 04:57:52;;;;;;;47.67;23.52;;;;;;;;;;6293803;28;20085;-54
2023/06/29 05:00:54;;;;;;;47.47;24.42;;;;;;;;;;6300926;28;20044;-54
2023/06/29 05:03:54;;;;;;;46.42;22.88;;;;;;;;;;6300256;28;20052;-54
2023/06/29 05:06:55;;;;;;;47.88;22.45;;;;;;;;;;6302588;28;20139;-53
2023/06/29 05:09:56;;;;;;;41.45;22.20;;;;;;;;;;6299591;28;20399;-53
2023/06/29 05:12:56;;;;;;;43.55;21.55;;;;;;;;;;6299011;28;20039;-55
2023/06/29 05:15:57;;;;;;;43.80;22.23;;;;;;;;;;6297970;28;20147;-54
2023/06/29 05:18:57;;;;;;;46.17;22.15;;;;;;;;;;6302751;28;20497;-54
2023/06/29 05:21:58;;;;;;;43.63;21.85;;;;;;;;;;6304078;28;20059;-50
2023/06/29 05:24:59;;;;;;;48.28;22.95;;;;;;;;;;6298319;28;20052;-54
2023/06/29 05:27:59;;;;;;;46.38;22.33;;;;;;;;;;6299205;28;20089;-52
2023/06/29 05:31:00;;;;;;;43.85;21.83;;;;;;;;;;6298446;28;20048;-53
2023/06/29 05:34:00;;;;;;;42.67;22.00;;;;;;;;;;6303894;28;20481;-51
2023/06/29 05:37:02;;;;;;;43.90;20.83;;;;;;;;;;6291488;28;20375;-53
2023/06/29 05:40:02;;;;;;;36.60;20.15;;;;;;;;;;6296913;28;20175;-54
2023/06/29 05:43:03;;;;;;;39.35;20.20;;;;;;;;;;6299958;28;20080;-53
2023/06/29 05:46:03;;;;;;;41.95;20.77;;;;;;;;;;6296054;28;20094;-54
2023/06/29 05:49:05;;;;;;;37.50;19.53;;;;;;;;;;6296841;28;20037;-55
2023/06/29 05:52:05;;;;;;;42.90;19.90;;;;;;;;;;6298630;28;20048;-52
2023/06/29 05:55:06;;;;;;;43.75;20.98;;;;;;;;;;6296710;28;20388;-54
2023/06/29 05:58:07;;;;;;;38.38;19.48;;;;;;;;;;6302152;28;20045;-55
2023/06/29 06:01:08;;;;;;;37.58;19.30;;;;;;;;;;6298691;28;20495;-55
2023/06/29 06:04:08;;;;;;;36.55;19.38;;;;;;;;;;6297370;28;20044;-51
2023/06/29 06:07:10;;;;;;;39.78;19.80;;;;;;;;;;6296635;28;20047;-55
2023/06/29 06:10:10;;;;;;;35.35;19.15;;;;;;;;;;6294051;28;20141;-53
2023/06/29 06:13:12;;;;;;;40.28;20.27;;;;;;;;;;6297860;28;20036;-53
2023/06/29 06:16:13;;;;;;;42.85;20.33;;;;;;;;;;6294695;28;20041;-53
2023/06/29 06:19:13;;;;;;;40.50;19.13;;;;;;;;;;6298313;28;20043;-53
2023/06/29 06:22:14;;;;;;;45.22;20.98;;;;;;;;;;6295314;28;20063;-54
2023/06/29 06:25:17;;;;;;;42.20;20.42;;;;;;;;;;6297372;28;20109;-53
2023/06/29 06:28:17;;;;;;;43.22;21.38;;;;;;;;;;6296732;28;20040;-54
2023/06/29 06:31:18;;;;;;;44.45;21.30;;;;;;;;;;6296986;28;20477;-52
2023/06/29 06:34:19;;;;;;;45.58;19.95;;;;;;;;;;6298470;28;20123;-51
2023/06/29 06:37:20;;;;;;;40.28;19.70;;;;;;;;;;6296760;28;20044;-53
2023/06/29 06:40:20;;;;;;;41.63;20.55;;;;;;;;;;6294759;28;20040;-55
2023/06/29 06:43:21;;;;;;;37.47;19.13;;;;;;;;;;6296032;28;20037;-55
2023/06/29 06:46:22;;;;;;;44.22;19.73;;;;;;;;;;6294782;28;20514;-53
2023/06/29 06:49:23;;;;;;;44.80;20.23;;;;;;;;;;6293583;28;20093;-53
2023/06/29 06:52:24;;;;;;;41.00;20.67;;;;;;;;;;6294050;28;20052;-54
2023/06/29 06:55:25;;;;;;;49.22;21.95;;;;;;;;;;6295818;28;20090;-52
2023/06/29 06:58:27;;;;;;;47.58;22.20;;;;;;;;;;6294248;28;20117;-53
2023/06/29 07:01:28;;;;;;;52.30;24.17;;;;;;;;;;6295557;28;20483;-53
2023/06/29 07:04:29;;;;;;;50.47;22.67;;;;;;;;;;6296919;28;20434;-54
2023/06/29 07:07:29;;;;;;;46.15;23.50;;;;;;;;;;6294577;28;20074;-50
2023/06/29 07:10:30;;;;;;;49.97;22.48;;;;;;;;;;6296327;28;20461;-51
2023/06/29 07:13:31;;;;;;;53.15;23.92;;;;;;;;;;6298818;28;20053;-53
2023/06/29 07:16:31;;;;;;;52.83;23.23;;;;;;;;;;6294120;28;20028;-53
2023/06/29 07:19:32;;;;;;;46.90;23.20;;;;;;;;;;6293063;28;20091;-52
2023/06/29 07:22:33;;;;;;;49.17;22.75;;;;;;;;;;6294189;28;20052;-54
2023/06/29 07:25:33;;;;;;;46.42;24.25;;;;;;;;;;6296791;28;20044;-53
2023/06/29 07:28:34;;;;;;;49.15;23.20;;;;;;;;;;6296080;28;20051;-52
2023/06/29 07:31:35;;;;;;;43.83;23.47;;;;;;;;;;6298420;28;20506;-51
2023/06/29 07:34:35;;;;;;;47.15;22.92;;;;;;;;;;6297089;28;20391;-53
2023/06/29 07:37:36;;;;;;;49.88;23.15;;;;;;;;;;6295605;28;20033;-51
2023/06/29 07:40:37;;;;;;;56.00;24.33;;;;;;;;;;6292790;28;20118;-54
2023/06/29 07:43:39;;;;;;;50.85;24.30;;;;;;;;;;6290973;28;20433;-50
2023/06/29 07:46:40;;;;;;;49.22;24.35;;;;;;;;;;6296689;28;20465;-54
2023/06/29 07:49:41;;;;;;;50.58;24.67;;;;;;;;;;6296066;28;20135;-52
2023/06/29 07:52:41;;;;;;;50.13;23.23;;;;;;;;;;6300913;28;20097;-51
2023/06/29 07:55:42;;;;;;;48.05;24.38;;;;;;;;;;6300386;28;20062;-53
2023/06/29 07:58:42;;;;;;;47.55;23.63;;;;;;;;;;6300188;28;20048;-54
2023/06/29 08:01:46;;;;;;;47.20;23.13;;;;;;;;;;6299284;28;20040;-53
2023/06/29 08:04:47;;;;;;;37.80;19.38;;;;;;;;;;6299663;28;20146;-52
2023/06/29 08:07:49;;;;;;;39.10;19.73;;;;;;;;;;6298046;28;20036;-51
2023/06/29 08:10:50;;;;;;;35.00;18.80;;;;;;;;;;6297343;28;20052;-54
2023/06/29 08:13:50;;;;;;;31.92;18.45;;;;;;;;;;6298176;28;20415;-52
2023/06/29 08:16:51;;;;;;;32.88;17.52;;;;;;;;;;6303024;28;20136;-51
2023/06/29 08:19:51;;;;;;;36.05;18.95;;;;;;;;;;6298289;28;20040;-54
2023/06/29 08:22:52;;;;;;;32.73;18.03;;;;;;;;;;6298878;28;20062;-55
2023/06/29 08:25:54;;;;;;;36.43;19.27;;;;;;;;;;6299672;28;20052;-54
2023/06/29 08:28:54;;;;;;;34.87;19.00;;;;;;;;;;6296617;28;20136;-53
2023/06/29 08:31:55;;;;;;;37.85;20.20;;;;;;;;;;6310285;28;20044;-50
2023/06/29 08:34:55;;;;;;;34.17;19.00;;;;;;;;;;6302875;28;20134;-54
2023/06/29 08:37:56;;;;;;;31.48;17.48;;;;;;;;;;6299074;28;20114;-50
2023/06/29 08:40:59;;;;;;;28.30;16.73;;;;;;;;;;6297848;28;20515;-53
2023/06/29 08:44:01;;;;;;;32.80;16.98;;;;;;;;;;6300005;28;20035;-53
2023/06/29 08:47:04;;;;;;;31.83;18.05;;;;;;;;;;6301452;28;20040;-53
2023/06/29 08:50:08;;;;;;;30.58;17.50;;;;;;;;;;6306542;28;20043;-52
2023/06/29 08:53:10;;;;;;;30.52;17.75;;;;;;;;;;6299446;28;20052;-53
2023/06/29 08:56:11;;;;;;;;;;;;;;;;;;6302092;28;20106;-54
2023/06/29 08:59:12;;;;;;;27.30;15.37;;;;;;;;;;6301500;28;19959;-51
2023/06/29 09:02:14;;;;;;;26.33;15.80;;;;;;;;;;6301845;28;20062;-50
2023/06/29 09:05:16;;;;;;;27.83;15.68;;;;;;;;;;6300323;28;20093;-53
2023/06/29 09:08:18;;;;;;;26.67;15.17;;;;;;;;;;6297510;28;20127;-50
2023/06/29 09:11:18;;;;;;;;;;;;;;;;;;6300686;28;20044;-51
2023/06/29 09:14:19;;;;;;;29.70;13.95;;;;;;;;;;6300358;28;20372;-51
2023/06/29 09:17:21;;;;;;;25.83;16.20;;;;;;;;;;6301331;28;20136;-55
2023/06/29 09:20:25;;;;;;;22.80;14.70;;;;;;;;;;6299230;28;20115;-53
2023/06/29 09:23:25;;;;;;;29.58;14.85;;;;;;;;;;6299037;28;20040;-55
2023/06/29 09:26:27;;;;;;;27.07;15.67;;;;;;;;;;6301219;28;20068;-50
2023/06/29 09:29:28;;;;;;;26.45;14.85;;;;;;;;;;6301415;28;20281;-52
2023/06/29 09:32:29;;;;;;;24.23;15.30;;;;;;;;;;6303381;28;20104;-52
2023/06/29 09:35:30;;;;;;;25.63;15.73;;;;;;;;;;6302027;28;20040;-55
2023/06/29 09:38:32;;;;;;;26.30;15.60;;;;;;;;;;6300385;28;20048;-55
2023/06/29 09:41:46;;;;;;;26.33;15.45;;;;;;;;;;6297776;28;20082;-54
2023/06/29 09:44:46;;;;;;;26.23;15.65;;;;;;;;;;6301583;28;20044;-52
2023/06/29 09:47:51;;;;;;;24.70;14.73;;;;;;;;;;6298282;28;21388;-52
2023/06/29 09:50:54;;;;;;;22.95;14.88;;;;;;;;;;6298368;28;20410;-52
2023/06/29 09:53:54;;;;;;;;;;;;;;;;;;6303620;28;20052;-53
2023/06/29 09:56:55;;;;;;;22.30;13.98;;;;;;;;;;6300387;28;19924;-54
2023/06/29 09:59:56;;;;;;;22.30;13.77;;;;;;;;;;6300242;28;20072;-52
2023/06/29 10:02:57;;;;;;;22.75;13.52;;;;;;;;;;6301209;28;20043;-53
2023/06/29 10:06:06;;;;;;;22.17;13.43;;;;;;;;;;6300760;28;20448;-54
2023/06/29 10:09:07;;;;;;;19.40;12.48;;;;;;;;;;6298459;28;20040;-52
2023/06/29 10:12:10;;;;;;;21.60;13.75;;;;;;;;;;6300571;28;20044;-51
2023/06/29 10:15:13;;;;;;;22.88;13.77;;;;;;;;;;6299285;28;20475;-54
2023/06/29 10:18:20;;;;;;;21.13;12.95;;;;;;;;;;6300237;28;20059;-52
2023/06/29 10:21:21;;;;;;;21.08;14.00;;;;;;;;;;6298892;28;20036;-53
2023/06/29 10:24:27;;;;;;;19.90;12.77;;;;;;;;;;6305109;28;20051;-54
2023/06/29 10:27:29;;;;;;;20.80;12.88;;;;;;;;;;6308966;28;20463;-53
2023/06/29 10:30:42;;;;;;;20.02;12.27;;;;;;;;;;6297052;28;20111;-49
2023/06/29 10:33:47;;;;;;;19.95;13.65;;;;;;;;;;6299399;28;20036;-53
2023/06/29 10:36:49;;;;;;;18.85;12.77;;;;;;;;;;6297946;28;20145;-53
2023/06/29 10:39:56;;;;;;;20.70;13.75;;;;;;;;;;6298652;28;20443;-53
2023/06/29 10:42:56;;;;;;;21.30;12.90;;;;;;;;;;6296714;28;20040;-52
2023/06/29 10:45:59;;;;;;;19.27;12.60;;;;;;;;;;6297057;28;20072;-53
2023/06/29 10:48:59;;;;;;;;;;;;;;;;;;6298092;28;20077;-51
2023/06/29 10:52:04;;;;;;;20.75;12.10;;;;;;;;;;6297585;28;20367;-54
2023/06/29 10:55:22;;;;;;;18.48;11.63;;;;;;;;;;6298923;28;20048;-54
2023/06/29 10:58:31;;;;;;;22.00;13.05;;;;;;;;;;6306046;28;20470;-53
2023/06/29 11:01:32;;;;;;;23.65;14.05;;;;;;;;;;6298676;28;20097;-54
2023/06/29 11:04:33;;;;;;;21.60;13.20;;;;;;;;;;6291931;28;20052;-54
2023/06/29 11:07:34;;;;;;;19.50;12.50;;;;;;;;;;6296386;28;20060;-54
2023/06/29 11:10:35;;;;;;;21.73;13.20;;;;;;;;;;6289731;28;20495;-56
2023/06/29 11:13:38;;;;;;;29.90;14.40;;;;;;;;;;6298015;28;20048;-55
2023/06/29 11:16:40;;;;;;;19.70;13.50;;;;;;;;;;6299391;28;20047;-51
2023/06/29 11:19:45;;;;;;;21.03;13.53;;;;;;;;;;6297992;28;20052;-54
2023/06/29 11:22:46;;;;;;;20.42;12.50;;;;;;;;;;6301535;28;20717;-55
2023/06/29 11:25:47;;;;;;;16.90;12.47;;;;;;;;;;6305062;28;20047;-54
2023/06/29 11:28:49;;;;;;;17.60;11.87;;;;;;;;;;6303745;28;20460;-53
2023/06/29 11:31:49;;;;;;;20.15;12.57;;;;;;;;;;6303435;28;20676;-53
2023/06/29 11:35:00;;;;;;;21.43;13.10;;;;;;;;;;6299745;28;20044;-53
2023/06/29 11:38:01;;;;;;;20.70;12.77;;;;;;;;;;6303306;28;20482;-54
2023/06/29 11:41:04;;;;;;;20.33;13.07;;;;;;;;;;6305332;28;20048;-51
2023/06/29 11:44:04;;;;;;;19.35;11.70;;;;;;;;;;6301152;28;20079;-52
2023/06/29 11:47:06;;;;;;;19.53;11.53;;;;;;;;;;6299843;28;20044;-52
2023/06/29 11:50:09;;;;;;;19.95;11.90;;;;;;;;;;6298227;28;20101;-56
2023/06/29 11:53:11;;;;;;;16.70;11.15;;;;;;;;;;6301958;28;20134;-51
2023/06/29 11:56:35;;;;;;;17.15;11.20;;;;;;;;;;6301934;28;20091;-54
2023/06/29 11:59:38;;;;;;;21.80;10.95;;;;;;;;;;6299779;28;20041;-53
2023/06/29 12:02:42;;;;;;;16.92;10.98;;;;;;;;;;6297756;28;20051;-54
2023/06/29 12:05:43;;;;;;;20.02;12.65;;;;;;;;;;6300798;28;20043;-56
2023/06/29 12:08:45;;;;;;;18.52;12.13;;;;;;;;;;6301319;28;20399;-51
2023/06/29 12:11:59;;;;;;;18.58;11.40;;;;;;;;;;6298130;28;20098;-54
2023/06/29 12:15:11;;;;;;;18.15;12.13;;;;;;;;;;6300870;28;20049;-51
2023/06/29 12:18:13;;;;;;;;;;;;;;;;;;6302060;28;20494;-60
2023/06/29 12:21:20;;;;;;;18.10;10.90;;;;;;;;;;6286130;28;19925;-54
2023/06/29 12:24:23;;;;;;;17.55;11.40;;;;;;;;;;6296733;28;20047;-52
2023/06/29 12:27:24;;;;;;;14.25;10.00;;;;;;;;;;6289078;28;20043;-54
2023/06/29 12:30:25;;;;;;;17.57;11.27;;;;;;;;;;6285864;28;20043;-53
2023/06/29 12:33:25;;;;;;;23.83;11.80;;;;;;;;;;6289613;28;20105;-53
2023/06/29 12:36:26;;;;;;;20.80;12.67;;;;;;;;;;6288387;28;20121;-56
2023/06/29 12:39:27;;;;;;;22.73;12.00;;;;;;;;;;6283700;28;20044;-55
2023/06/29 12:42:28;;;;;;;16.42;11.32;;;;;;;;;;6287983;28;20135;-53
2023/06/29 12:45:29;;;;;;;20.30;11.40;;;;;;;;;;6292790;28;20044;-55
2023/06/29 12:48:30;;;;;;;19.48;11.82;;;;;;;;;;6288740;28;20560;-56
2023/06/29 12:51:31;;;;;;;17.43;10.67;;;;;;;;;;6286279;28;20047;-55
2023/06/29 12:54:33;;;;;;;17.60;10.65;;;;;;;;;;6286486;28;20878;-53
2023/06/29 12:57:33;;;;;;;20.38;11.55;;;;;;;;;;6287905;28;20089;-55
2023/06/29 13:00:34;;;;;;;19.40;11.33;;;;;;;;;;6283085;28;20105;-55
2023/06/29 13:03:34;;;;;;;18.53;11.40;;;;;;;;;;6287348;28;20066;-54
2023/06/29 13:06:35;;;;;;;16.53;10.67;;;;;;;;;;6286004;28;20985;-54
2023/06/29 13:09:36;;;;;;;18.37;11.73;;;;;;;;;;6281699;28;20040;-56
2023/06/29 13:12:39;;;;;;;19.00;11.03;;;;;;;;;;6286952;28;20063;-55
2023/06/29 13:15:40;;;;;;;19.00;11.43;;;;;;;;;;6282953;28;20474;-56
2023/06/29 13:18:40;;;;;;;15.47;10.80;;;;;;;;;;6284418;28;20208;-55
2023/06/29 13:21:41;;;;;;;16.77;11.30;;;;;;;;;;6277666;28;20647;-54
2023/06/29 13:24:42;;;;;;;18.17;12.10;;;;;;;;;;6286792;28;20105;-52
2023/06/29 13:27:43;;;;;;;16.67;11.47;;;;;;;;;;6280378;28;20509;-56
2023/06/29 13:30:44;;;;;;;16.70;11.35;;;;;;;;;;6282127;28;20501;-56
2023/06/29 13:33:45;;;;;;;16.30;11.33;;;;;;;;;;6285534;28;20040;-54
2023/06/29 13:36:46;;;;;;;18.20;10.93;;;;;;;;;;6287241;28;20291;-53
2023/06/29 13:39:47;;;;;;;15.30;10.50;;;;;;;;;;6282469;28;20048;-53
2023/06/29 13:42:48;;;;;;;15.33;10.87;;;;;;;;;;6286922;28;20045;-52
2023/06/29 13:45:48;;;;;;;17.80;10.88;;;;;;;;;;6291841;28;20418;-54
2023/06/29 13:48:49;;;;;;;18.30;10.97;;;;;;;;;;6286405;28;20056;-53
2023/06/29 13:51:50;;;;;;;15.03;10.87;;;;;;;;;;6284049;28;21034;-53
2023/06/29 13:54:51;;;;;;;18.90;10.40;;;;;;;;;;6286527;28;20059;-55
2023/06/29 13:57:51;;;;;;;17.07;10.47;;;;;;;;;;6288964;28;20848;-57
2023/06/29 14:00:52;;;;;;;17.00;10.43;;;;;;;;;;6284552;28;20858;-54
2023/06/29 14:03:52;;;;;;;15.63;10.33;;;;;;;;;;6285117;28;20053;-56
2023/06/29 14:06:54;;;;;;;17.30;10.50;;;;;;;;;;6287486;28;20455;-56
2023/06/29 14:09:54;;;;;;;15.65;10.38;;;;;;;;;;6287475;28;20036;-55
2023/06/29 14:12:55;;;;;;;14.45;10.48;;;;;;;;;;6285011;28;20107;-54
2023/06/29 14:15:56;;;;;;;14.67;10.13;;;;;;;;;;6288370;28;20503;-56
2023/06/29 14:18:58;;;;;;;14.93;10.00;;;;;;;;;;6285283;28;20050;-55
2023/06/29 14:21:58;;;;;;;13.43;9.45;;;;;;;;;;6287195;28;20338;-55
2023/06/29 14:24:59;;;;;;;16.37;10.03;;;;;;;;;;6287795;28;20053;-57
2023/06/29 14:28:00;;;;;;;14.43;9.57;;;;;;;;;;6287354;28;20041;-55
2023/06/29 14:31:01;;;;;;;14.95;9.32;;;;;;;;;;6284495;28;20047;-53
2023/06/29 14:34:01;;;;;;;13.33;9.50;;;;;;;;;;6287797;28;20457;-55
2023/06/29 14:37:02;;;;;;;16.02;9.75;;;;;;;;;;6290125;28;20102;-55
2023/06/29 14:40:05;;;;;;;14.73;9.63;;;;;;;;;;6285978;28;20078;-57
2023/06/29 14:43:07;;;;;;;13.82;9.93;;;;;;;;;;6285987;28;20147;-51
2023/06/29 14:46:08;;;;;;;13.07;9.77;;;;;;;;;;6293115;28;20048;-57
2023/06/29 14:49:09;;;;;;;15.63;9.47;;;;;;;;;;6277495;28;20071;-56
2023/06/29 14:52:09;;;;;;;16.07;10.97;;;;;;;;;;6295168;28;20288;-56
2023/06/29 14:55:10;;;;;;;17.00;10.47;;;;;;;;;;6289163;28;20060;-52
2023/06/29 14:58:11;;;;;;;15.30;9.53;;;;;;;;;;6290224;28;20041;-57
2023/06/29 15:01:12;;;;;;;15.88;9.50;;;;;;;;;;6289275;28;20054;-58
2023/06/29 15:04:12;;;;;;;13.13;9.17;;;;;;;;;;6295295;28;20485;-59
2023/06/29 15:07:13;;;;;;;15.45;10.18;;;;;;;;;;6293755;28;20058;-60
2023/06/29 15:10:13;;;;;;;15.37;10.17;;;;;;;;;;6286647;28;21178;-60
2023/06/29 15:13:14;;;;;;;13.32;9.52;;;;;;;;;;6291643;28;20488;-60
2023/06/29 15:16:15;;;;;;;16.17;9.83;;;;;;;;;;6294701;28;20073;-58
2023/06/29 15:19:15;;;;;;;15.93;10.27;;;;;;;;;;6287628;28;20051;-59
2023/06/29 15:22:16;;;;;;;15.27;10.20;;;;;;;;;;6294862;28;20052;-58
2023/06/29 15:25:17;;;;;;;15.47;10.77;;;;;;;;;;6293350;28;20079;-59
2023/06/29 15:28:17;;;;;;;14.77;10.13;;;;;;;;;;6294169;28;20052;-59
2023/06/29 15:31:18;;;;;;;18.43;10.33;;;;;;;;;;6288159;28;20538;-58
2023/06/29 15:34:18;;;;;;;18.57;10.53;;;;;;;;;;6294485;28;20304;-61
2023/06/29 15:37:19;;;;;;;15.60;9.33;;;;;;;;;;6289788;28;20134;-59
2023/06/29 15:40:20;;;;;;;14.77;10.33;;;;;;;;;;6287558;28;20659;-62
2023/06/29 15:43:21;;;;;;;14.70;10.23;;;;;;;;;;6290962;28;21280;-54
2023/06/29 15:46:21;;;;;;;16.20;9.53;;;;;;;;;;6286922;28;20519;-52
2023/06/29 15:49:22;;;;;;;16.77;10.00;;;;;;;;;;6289245;28;20123;-52
2023/06/29 15:52:23;;;;;;;14.30;9.90;;;;;;;;;;6288153;28;20044;-52
2023/06/29 15:55:23;;;;;;;15.80;9.30;;;;;;;;;;6294323;28;20350;-56
2023/06/29 15:58:24;;;;;;;15.00;9.43;;;;;;;;;;6284757;28;20828;-53
2023/06/29 16:01:24;;;;;;;15.30;9.10;;;;;;;;;;6282458;28;20814;-53
2023/06/29 16:04:25;;;;;;;16.87;8.07;;;;;;;;;;6292353;28;20052;-58
2023/06/29 16:07:26;;;;;;;12.83;8.60;;;;;;;;;;6288821;28;20087;-50
2023/06/29 16:10:26;;;;;;;14.37;9.20;;;;;;;;;;6289314;28;20040;-54
2023/06/29 16:13:27;;;;;;;14.05;8.75;;;;;;;;;;6296482;28;20067;-60
2023/06/29 16:16:28;;;;;;;13.73;7.97;;;;;;;;;;6291525;28;20281;-55
2023/06/29 16:19:28;;;;;;;15.70;8.88;;;;;;;;;;6293250;28;20565;-54
2023/06/29 16:22:29;;;;;;;11.97;8.17;;;;;;;;;;6289009;28;20040;-53
2023/06/29 16:25:30;;;;;;;11.60;7.45;;;;;;;;;;6294915;28;20064;-53
2023/06/29 16:28:31;;;;;;;12.57;7.70;;;;;;;;;;6298267;28;20047;-58
2023/06/29 16:31:32;;;;;;;14.13;7.90;;;;;;;;;;6291306;28;20048;-57
2023/06/29 16:34:33;;;;;;;14.30;8.00;;;;;;;;;;6297445;28;20051;-60
2023/06/29 16:37:33;;;;;;;12.77;8.10;;;;;;;;;;6291556;28;20949;-61
2023/06/29 16:40:34;;;;;;;12.63;7.50;;;;;;;;;;6292604;28;20273;-60
2023/06/29 16:43:35;;;;;;;12.45;8.05;;;;;;;;;;6293738;28;20052;-63
2023/06/29 16:46:35;;;;;;;12.33;7.87;;;;;;;;;;6295125;28;20721;-59
2023/06/29 16:49:38;;;;;;;13.52;7.78;;;;;;;;;;6288442;28;20056;-60
2023/06/29 16:52:39;;;;;;;16.48;7.50;;;;;;;;;;6294538;28;20068;-59
2023/06/29 16:55:39;;;;;;;11.10;7.78;;;;;;;;;;6293461;28;20430;-61
2023/06/29 16:58:40;;;;;;;11.93;8.30;;;;;;;;;;6289329;28;20105;-59
2023/06/29 17:01:41;;;;;;;15.20;8.02;;;;;;;;;;6292774;28;21682;-59
2023/06/29 17:04:41;;;;;;;10.73;7.30;;;;;;;;;;6299865;28;20048;-59
2023/06/29 17:07:42;;;;;;;13.80;7.88;;;;;;;;;;6291503;28;20134;-59
2023/06/29 17:10:42;;;;;;;13.30;7.93;;;;;;;;;;6288976;28;20055;-59
2023/06/29 17:13:44;;;;;;;13.38;7.93;;;;;;;;;;6296051;28;20097;-60
2023/06/29 17:16:44;;;;;;;;;;;;;;;;;;6297551;28;20072;-57
2023/06/29 17:19:48;;;;;;;12.90;8.03;;;;;;;;;;6291854;28;19950;-60
2023/06/29 17:22:49;;;;;;;12.50;8.35;;;;;;;;;;6288098;28;20127;-60
2023/06/29 17:25:51;;;;;;;12.90;7.82;;;;;;;;;;6287896;28;20087;-61
2023/06/29 17:28:51;;;;;;;13.57;7.60;;;;;;;;;;6289043;28;20061;-60
2023/06/29 17:31:52;;;;;;;13.23;8.07;;;;;;;;;;6295611;28;20046;-59
2023/06/29 17:34:53;;;;;;;12.63;7.97;;;;;;;;;;6294719;28;20048;-60
2023/06/29 17:37:54;;;;;;;10.43;7.60;;;;;;;;;;6289770;28;20140;-59
2023/06/29 17:40:54;;;;;;;14.13;7.97;;;;;;;;;;6293467;28;20041;-59